sensor_id;sensor_type;location;lat;lon;timestamp;P1;durP1;ratioP1;P2;durP2;ratioP2
70757;SDS011;59316;52.964;7.102;2023-01-04T00:04:43;7.05;;;2.25;;
70757;SDS011;59316;52.964;7.102;2023-01-04T00:09:45;7.13;;;2.55;;
70757;SDS011;59316;52.964;7.102;2023-01-04T00:14:47;7.10;;;2.30;;
70757;SDS011;59316;52.964;7.102;2023-01-04T00:19:49;3.25;;;1.48;;
70757;SDS011;59316;52.964;7.102;2023-01-04T00:24:51;7.18;;;2.38;;
70757;SDS011;59316;52.964;7.102;2023-01-04T00:29:52;5.63;;;1.73;;
70757;SDS011;59316;52.964;7.102;2023-01-04T00:34:54;4.13;;;1.88;;
70757;SDS011;59316;52.964;7.102;2023-01-04T00:39:56;3.83;;;2.15;;
70757;SDS011;59316;52.964;7.102;2023-01-04T00:44:58;8.10;;;2.00;;
70757;SDS011;59316;52.964;7.102;2023-01-04T00:50:00;4.25;;;1.77;;
70757;SDS011;59316;52.964;7.102;2023-01-04T00:55:01;4.00;;;2.13;;
70757;SDS011;59316;52.964;7.102;2023-01-04T01:00:03;6.85;;;2.10;;
70757;SDS011;59316;52.964;7.102;2023-01-04T01:05:06;6.82;;;2.00;;
70757;SDS011;59316;52.964;7.102;2023-01-04T01:10:08;6.05;;;2.10;;
70757;SDS011;59316;52.964;7.102;2023-01-04T01:15:10;4.53;;;2.28;;
70757;SDS011;59316;52.964;7.102;2023-01-04T01:20:11;5.80;;;2.25;;
70757;SDS011;59316;52.964;7.102;2023-01-04T01:25:13;6.47;;;2.60;;
70757;SDS011;59316;52.964;7.102;2023-01-04T01:30:15;7.28;;;2.20;;
70757;SDS011;59316;52.964;7.102;2023-01-04T01:35:17;8.85;;;2.28;;
70757;SDS011;59316;52.964;7.102;2023-01-04T01:40:19;7.18;;;2.00;;
70757;SDS011;59316;52.964;7.102;2023-01-04T01:45:28;5.28;;;2.33;;
70757;SDS011;59316;52.964;7.102;2023-01-04T01:50:35;4.72;;;2.20;;
70757;SDS011;59316;52.964;7.102;2023-01-04T01:55:39;5.25;;;2.10;;
70757;SDS011;59316;52.964;7.102;2023-01-04T02:00:43;3.75;;;2.22;;
70757;SDS011;59316;52.964;7.102;2023-01-04T02:05:45;9.23;;;2.92;;
70757;SDS011;59316;52.964;7.102;2023-01-04T02:10:51;5.47;;;2.50;;
70757;SDS011;59316;52.964;7.102;2023-01-04T02:16:07;6.07;;;2.53;;
70757;SDS011;59316;52.964;7.102;2023-01-04T02:21:13;5.60;;;2.72;;
70757;SDS011;59316;52.964;7.102;2023-01-04T02:36:44;7.93;;;3.05;;
70757;SDS011;59316;52.964;7.102;2023-01-04T02:41:49;9.32;;;3.60;;
70757;SDS011;59316;52.964;7.102;2023-01-04T02:47:00;6.53;;;3.13;;
70757;SDS011;59316;52.964;7.102;2023-01-04T02:52:03;4.53;;;2.85;;
70757;SDS011;59316;52.964;7.102;2023-01-04T03:12:57;4.07;;;2.55;;
70757;SDS011;59316;52.964;7.102;2023-01-04T03:23:08;4.75;;;2.63;;
70757;SDS011;59316;52.964;7.102;2023-01-04T03:28:12;7.07;;;3.10;;
70757;SDS011;59316;52.964;7.102;2023-01-04T03:33:14;4.65;;;2.97;;
70757;SDS011;59316;52.964;7.102;2023-01-04T03:38:20;7.20;;;3.13;;
70757;SDS011;59316;52.964;7.102;2023-01-04T03:43:28;5.30;;;2.80;;
70757;SDS011;59316;52.964;7.102;2023-01-04T03:59:02;3.92;;;2.35;;
70757;SDS011;59316;52.964;7.102;2023-01-04T04:04:04;6.45;;;2.95;;
70757;SDS011;59316;52.964;7.102;2023-01-04T04:09:06;3.90;;;2.40;;
70757;SDS011;59316;52.964;7.102;2023-01-04T04:14:08;3.42;;;2.30;;
70757;SDS011;59316;52.964;7.102;2023-01-04T04:19:10;4.28;;;2.40;;
70757;SDS011;59316;52.964;7.102;2023-01-04T04:24:17;3.70;;;2.25;;
70757;SDS011;59316;52.964;7.102;2023-01-04T04:29:20;3.35;;;2.20;;
70757;SDS011;59316;52.964;7.102;2023-01-04T04:39:25;4.07;;;2.33;;
70757;SDS011;59316;52.964;7.102;2023-01-04T04:44:27;4.87;;;2.43;;
70757;SDS011;59316;52.964;7.102;2023-01-04T04:49:30;5.20;;;2.60;;
70757;SDS011;59316;52.964;7.102;2023-01-04T04:54:31;3.50;;;2.38;;
70757;SDS011;59316;52.964;7.102;2023-01-04T04:59:33;3.17;;;2.28;;
70757;SDS011;59316;52.964;7.102;2023-01-04T05:04:35;2.75;;;2.10;;
70757;SDS011;59316;52.964;7.102;2023-01-04T05:09:37;2.88;;;2.40;;
70757;SDS011;59316;52.964;7.102;2023-01-04T05:14:39;3.22;;;2.35;;
70757;SDS011;59316;52.964;7.102;2023-01-04T05:19:40;4.68;;;2.40;;
70757;SDS011;59316;52.964;7.102;2023-01-04T05:24:42;4.53;;;2.42;;
70757;SDS011;59316;52.964;7.102;2023-01-04T05:29:44;4.18;;;2.58;;
70757;SDS011;59316;52.964;7.102;2023-01-04T05:34:46;6.70;;;2.65;;
70757;SDS011;59316;52.964;7.102;2023-01-04T05:39:48;4.22;;;2.63;;
70757;SDS011;59316;52.964;7.102;2023-01-04T05:44:53;5.72;;;3.10;;
70757;SDS011;59316;52.964;7.102;2023-01-04T05:49:55;5.90;;;3.33;;
70757;SDS011;59316;52.964;7.102;2023-01-04T05:54:57;6.28;;;3.70;;
70757;SDS011;59316;52.964;7.102;2023-01-04T05:59:59;6.00;;;4.00;;
70757;SDS011;59316;52.964;7.102;2023-01-04T06:05:01;6.88;;;4.32;;
70757;SDS011;59316;52.964;7.102;2023-01-04T06:10:04;9.20;;;4.88;;
70757;SDS011;59316;52.964;7.102;2023-01-04T06:15:06;7.57;;;4.30;;
70757;SDS011;59316;52.964;7.102;2023-01-04T06:20:09;9.57;;;4.95;;
70757;SDS011;59316;52.964;7.102;2023-01-04T06:25:11;8.10;;;4.60;;
70757;SDS011;59316;52.964;7.102;2023-01-04T06:30:13;8.48;;;4.80;;
70757;SDS011;59316;52.964;7.102;2023-01-04T06:35:15;6.65;;;4.70;;
70757;SDS011;59316;52.964;7.102;2023-01-04T06:40:17;7.75;;;4.43;;
70757;SDS011;59316;52.964;7.102;2023-01-04T06:45:19;9.02;;;4.38;;
70757;SDS011;59316;52.964;7.102;2023-01-04T06:50:21;7.10;;;4.68;;
70757;SDS011;59316;52.964;7.102;2023-01-04T06:55:23;8.43;;;4.38;;
70757;SDS011;59316;52.964;7.102;2023-01-04T07:00:25;7.47;;;4.50;;
70757;SDS011;59316;52.964;7.102;2023-01-04T07:05:27;7.97;;;3.83;;
70757;SDS011;59316;52.964;7.102;2023-01-04T07:10:29;6.65;;;3.67;;
70757;SDS011;59316;52.964;7.102;2023-01-04T07:15:31;5.85;;;3.63;;
70757;SDS011;59316;52.964;7.102;2023-01-04T07:20:40;5.25;;;2.50;;
70757;SDS011;59316;52.964;7.102;2023-01-04T07:25:42;4.27;;;2.50;;
70757;SDS011;59316;52.964;7.102;2023-01-04T07:30:44;3.78;;;2.38;;
70757;SDS011;59316;52.964;7.102;2023-01-04T07:35:46;3.97;;;2.45;;
70757;SDS011;59316;52.964;7.102;2023-01-04T07:40:52;3.85;;;2.50;;
70757;SDS011;59316;52.964;7.102;2023-01-04T07:45:57;6.10;;;2.50;;
70757;SDS011;59316;52.964;7.102;2023-01-04T07:50:59;3.47;;;1.90;;
70757;SDS011;59316;52.964;7.102;2023-01-04T07:56:01;6.15;;;2.58;;
70757;SDS011;59316;52.964;7.102;2023-01-04T08:01:07;4.65;;;2.58;;
70757;SDS011;59316;52.964;7.102;2023-01-04T08:06:10;4.95;;;1.80;;
70757;SDS011;59316;52.964;7.102;2023-01-04T08:11:14;2.63;;;1.85;;
70757;SDS011;59316;52.964;7.102;2023-01-04T08:16:20;3.50;;;2.15;;
70757;SDS011;59316;52.964;7.102;2023-01-04T08:21:22;2.72;;;1.95;;
70757;SDS011;59316;52.964;7.102;2023-01-04T08:26:25;4.00;;;1.87;;
70757;SDS011;59316;52.964;7.102;2023-01-04T08:31:28;3.15;;;2.20;;
70757;SDS011;59316;52.964;7.102;2023-01-04T08:36:31;3.05;;;2.00;;
70757;SDS011;59316;52.964;7.102;2023-01-04T08:41:33;3.53;;;2.20;;
70757;SDS011;59316;52.964;7.102;2023-01-04T08:46:55;4.30;;;2.55;;
70757;SDS011;59316;52.964;7.102;2023-01-04T08:51:57;4.85;;;2.60;;
70757;SDS011;59316;52.964;7.102;2023-01-04T08:56:59;4.63;;;2.58;;
70757;SDS011;59316;52.964;7.102;2023-01-04T09:02:01;5.57;;;2.70;;
70757;SDS011;59316;52.964;7.102;2023-01-04T09:07:07;6.18;;;3.33;;
70757;SDS011;59316;52.964;7.102;2023-01-04T09:12:08;5.80;;;2.90;;
70757;SDS011;59316;52.964;7.102;2023-01-04T09:17:10;5.43;;;3.13;;
70757;SDS011;59316;52.964;7.102;2023-01-04T09:22:12;5.80;;;3.33;;
70757;SDS011;59316;52.964;7.102;2023-01-04T09:27:14;6.03;;;3.20;;
70757;SDS011;59316;52.964;7.102;2023-01-04T09:32:16;5.22;;;2.95;;
70757;SDS011;59316;52.964;7.102;2023-01-04T09:37:18;4.75;;;3.22;;
70757;SDS011;59316;52.964;7.102;2023-01-04T09:42:26;5.57;;;2.72;;
70757;SDS011;59316;52.964;7.102;2023-01-04T09:53:06;3.28;;;2.47;;
70757;SDS011;59316;52.964;7.102;2023-01-04T09:58:21;2.78;;;2.00;;
70757;SDS011;59316;52.964;7.102;2023-01-04T10:03:24;3.20;;;2.00;;
70757;SDS011;59316;52.964;7.102;2023-01-04T10:08:28;3.60;;;1.83;;
70757;SDS011;59316;52.964;7.102;2023-01-04T10:13:34;2.83;;;2.13;;
70757;SDS011;59316;52.964;7.102;2023-01-04T10:18:57;2.65;;;1.70;;
70757;SDS011;59316;52.964;7.102;2023-01-04T10:30:01;1.98;;;1.48;;
70757;SDS011;59316;52.964;7.102;2023-01-04T10:35:18;1.50;;;1.20;;
70757;SDS011;59316;52.964;7.102;2023-01-04T10:40:25;1.20;;;0.80;;
70757;SDS011;59316;52.964;7.102;2023-01-04T10:45:34;1.20;;;0.90;;
70757;SDS011;59316;52.964;7.102;2023-01-04T10:50:57;2.70;;;1.02;;
70757;SDS011;59316;52.964;7.102;2023-01-04T10:56:20;1.70;;;1.30;;
70757;SDS011;59316;52.964;7.102;2023-01-04T11:01:27;3.78;;;1.80;;
70757;SDS011;59316;52.964;7.102;2023-01-04T11:06:45;5.25;;;1.90;;
70757;SDS011;59316;52.964;7.102;2023-01-04T11:11:55;3.53;;;1.80;;
70757;SDS011;59316;52.964;7.102;2023-01-04T11:16:59;6.45;;;1.95;;
70757;SDS011;59316;52.964;7.102;2023-01-04T11:22:05;6.47;;;2.10;;
70757;SDS011;59316;52.964;7.102;2023-01-04T11:27:34;7.32;;;2.22;;
70757;SDS011;59316;52.964;7.102;2023-01-04T11:43:18;11.63;;;2.45;;
70757;SDS011;59316;52.964;7.102;2023-01-04T11:48:29;6.72;;;2.55;;
70757;SDS011;59316;52.964;7.102;2023-01-04T11:53:34;10.35;;;2.92;;
70757;SDS011;59316;52.964;7.102;2023-01-04T11:58:38;8.65;;;2.40;;
70757;SDS011;59316;52.964;7.102;2023-01-04T12:08:43;10.77;;;2.42;;
70757;SDS011;59316;52.964;7.102;2023-01-04T12:13:46;7.23;;;2.20;;
70757;SDS011;59316;52.964;7.102;2023-01-04T12:18:48;10.97;;;2.20;;
70757;SDS011;59316;52.964;7.102;2023-01-04T12:23:51;13.20;;;2.20;;
70757;SDS011;59316;52.964;7.102;2023-01-04T12:39:26;10.75;;;2.40;;
70757;SDS011;59316;52.964;7.102;2023-01-04T12:49:43;11.60;;;3.50;;
70757;SDS011;59316;52.964;7.102;2023-01-04T13:11:00;7.88;;;2.00;;
70757;SDS011;59316;52.964;7.102;2023-01-04T13:26:41;7.22;;;1.45;;
70757;SDS011;59316;52.964;7.102;2023-01-04T13:32:08;3.90;;;1.17;;
70757;SDS011;59316;52.964;7.102;2023-01-04T13:37:25;6.20;;;1.48;;
70757;SDS011;59316;52.964;7.102;2023-01-04T13:42:36;7.18;;;1.88;;
70757;SDS011;59316;52.964;7.102;2023-01-04T13:47:42;9.75;;;1.92;;
70757;SDS011;59316;52.964;7.102;2023-01-04T13:52:46;9.32;;;1.55;;
70757;SDS011;59316;52.964;7.102;2023-01-04T13:58:04;11.50;;;2.35;;
70757;SDS011;59316;52.964;7.102;2023-01-04T14:08:33;12.13;;;1.92;;
70757;SDS011;59316;52.964;7.102;2023-01-04T14:13:44;12.45;;;2.30;;
70757;SDS011;59316;52.964;7.102;2023-01-04T14:18:48;9.95;;;2.25;;
70757;SDS011;59316;52.964;7.102;2023-01-04T14:23:51;17.13;;;2.63;;
70757;SDS011;59316;52.964;7.102;2023-01-04T14:28:53;13.73;;;2.30;;
70757;SDS011;59316;52.964;7.102;2023-01-04T14:33:56;15.70;;;2.30;;
70757;SDS011;59316;52.964;7.102;2023-01-04T14:44:08;9.32;;;2.20;;
70757;SDS011;59316;52.964;7.102;2023-01-04T14:49:13;15.45;;;4.97;;
70757;SDS011;59316;52.964;7.102;2023-01-04T14:59:25;16.73;;;2.75;;
70757;SDS011;59316;52.964;7.102;2023-01-04T15:04:27;17.27;;;2.90;;
70757;SDS011;59316;52.964;7.102;2023-01-04T15:09:30;14.20;;;2.13;;
70757;SDS011;59316;52.964;7.102;2023-01-04T15:14:32;17.73;;;2.47;;
70757;SDS011;59316;52.964;7.102;2023-01-04T15:19:35;12.97;;;2.67;;
70757;SDS011;59316;52.964;7.102;2023-01-04T15:24:39;13.30;;;2.22;;
70757;SDS011;59316;52.964;7.102;2023-01-04T15:29:41;8.80;;;2.25;;
70757;SDS011;59316;52.964;7.102;2023-01-04T15:34:43;14.73;;;2.57;;
70757;SDS011;59316;52.964;7.102;2023-01-04T15:39:48;13.98;;;3.08;;
70757;SDS011;59316;52.964;7.102;2023-01-04T15:44:50;18.27;;;3.60;;
70757;SDS011;59316;52.964;7.102;2023-01-04T15:49:52;17.53;;;2.70;;
70757;SDS011;59316;52.964;7.102;2023-01-04T15:54:54;11.87;;;2.23;;
70757;SDS011;59316;52.964;7.102;2023-01-04T15:59:57;8.00;;;1.77;;
70757;SDS011;59316;52.964;7.102;2023-01-04T16:04:59;18.13;;;2.40;;
70757;SDS011;59316;52.964;7.102;2023-01-04T16:10:01;13.90;;;1.75;;
70757;SDS011;59316;52.964;7.102;2023-01-04T16:20:07;14.88;;;2.78;;
70757;SDS011;59316;52.964;7.102;2023-01-04T16:25:11;13.73;;;2.33;;
70757;SDS011;59316;52.964;7.102;2023-01-04T16:30:15;16.00;;;2.58;;
70757;SDS011;59316;52.964;7.102;2023-01-04T16:35:17;13.13;;;1.90;;
70757;SDS011;59316;52.964;7.102;2023-01-04T16:40:20;19.27;;;2.47;;
70757;SDS011;59316;52.964;7.102;2023-01-04T16:45:22;11.97;;;2.30;;
70757;SDS011;59316;52.964;7.102;2023-01-04T16:50:24;14.37;;;2.47;;
70757;SDS011;59316;52.964;7.102;2023-01-04T16:55:27;10.87;;;2.13;;
70757;SDS011;59316;52.964;7.102;2023-01-04T17:00:29;11.87;;;2.47;;
70757;SDS011;59316;52.964;7.102;2023-01-04T17:05:31;9.13;;;2.30;;
70757;SDS011;59316;52.964;7.102;2023-01-04T17:10:40;11.27;;;2.30;;
70757;SDS011;59316;52.964;7.102;2023-01-04T17:15:42;14.63;;;2.27;;
70757;SDS011;59316;52.964;7.102;2023-01-04T17:25:53;12.75;;;1.90;;
70757;SDS011;59316;52.964;7.102;2023-01-04T17:31:16;16.30;;;2.15;;
70757;SDS011;59316;52.964;7.102;2023-01-04T17:36:22;10.25;;;2.00;;
70757;SDS011;59316;52.964;7.102;2023-01-04T17:41:25;20.00;;;3.05;;
70757;SDS011;59316;52.964;7.102;2023-01-04T17:46:29;14.73;;;3.33;;
70757;SDS011;59316;52.964;7.102;2023-01-04T17:51:33;16.20;;;3.78;;
70757;SDS011;59316;52.964;7.102;2023-01-04T17:56:36;14.40;;;2.67;;
70757;SDS011;59316;52.964;7.102;2023-01-04T18:01:38;15.70;;;2.60;;
70757;SDS011;59316;52.964;7.102;2023-01-04T18:06:40;14.40;;;2.10;;
70757;SDS011;59316;52.964;7.102;2023-01-04T18:11:43;14.50;;;2.55;;
70757;SDS011;59316;52.964;7.102;2023-01-04T18:16:45;16.70;;;4.40;;
70757;SDS011;59316;52.964;7.102;2023-01-04T18:21:47;17.17;;;3.45;;
70757;SDS011;59316;52.964;7.102;2023-01-04T18:26:49;16.00;;;3.47;;
70757;SDS011;59316;52.964;7.102;2023-01-04T18:32:12;22.33;;;2.88;;
70757;SDS011;59316;52.964;7.102;2023-01-04T18:37:14;25.03;;;3.30;;
70757;SDS011;59316;52.964;7.102;2023-01-04T18:42:17;15.05;;;2.90;;
70757;SDS011;59316;52.964;7.102;2023-01-04T18:47:20;23.70;;;3.25;;
70757;SDS011;59316;52.964;7.102;2023-01-04T18:52:22;22.85;;;3.60;;
70757;SDS011;59316;52.964;7.102;2023-01-04T18:57:24;21.73;;;2.70;;
70757;SDS011;59316;52.964;7.102;2023-01-04T19:02:27;18.73;;;3.17;;
70757;SDS011;59316;52.964;7.102;2023-01-04T19:07:29;19.92;;;2.70;;
70757;SDS011;59316;52.964;7.102;2023-01-04T19:12:32;13.93;;;3.43;;
70757;SDS011;59316;52.964;7.102;2023-01-04T19:17:34;21.07;;;3.63;;
70757;SDS011;59316;52.964;7.102;2023-01-04T19:22:36;13.88;;;2.65;;
70757;SDS011;59316;52.964;7.102;2023-01-04T19:27:39;21.33;;;2.50;;
70757;SDS011;59316;52.964;7.102;2023-01-04T19:32:41;26.13;;;3.57;;
70757;SDS011;59316;52.964;7.102;2023-01-04T19:37:43;22.73;;;3.00;;
70757;SDS011;59316;52.964;7.102;2023-01-04T19:42:46;17.83;;;3.55;;
70757;SDS011;59316;52.964;7.102;2023-01-04T19:47:48;14.50;;;3.43;;
70757;SDS011;59316;52.964;7.102;2023-01-04T19:52:51;17.33;;;3.05;;
70757;SDS011;59316;52.964;7.102;2023-01-04T19:57:53;22.92;;;3.67;;
70757;SDS011;59316;52.964;7.102;2023-01-04T20:02:56;21.27;;;4.10;;
70757;SDS011;59316;52.964;7.102;2023-01-04T20:07:58;24.70;;;3.27;;
70757;SDS011;59316;52.964;7.102;2023-01-04T20:13:01;18.87;;;2.97;;
70757;SDS011;59316;52.964;7.102;2023-01-04T20:18:02;21.10;;;3.25;;
70757;SDS011;59316;52.964;7.102;2023-01-04T20:23:12;20.63;;;2.67;;
70757;SDS011;59316;52.964;7.102;2023-01-04T20:28:16;18.95;;;2.92;;
70757;SDS011;59316;52.964;7.102;2023-01-04T20:33:18;15.63;;;2.38;;
70757;SDS011;59316;52.964;7.102;2023-01-04T20:38:20;15.40;;;2.75;;
70757;SDS011;59316;52.964;7.102;2023-01-04T20:43:22;22.65;;;3.17;;
70757;SDS011;59316;52.964;7.102;2023-01-04T20:48:24;23.00;;;3.53;;
70757;SDS011;59316;52.964;7.102;2023-01-04T20:53:26;13.85;;;3.13;;
70757;SDS011;59316;52.964;7.102;2023-01-04T20:58:28;18.70;;;3.08;;
70757;SDS011;59316;52.964;7.102;2023-01-04T21:03:30;26.30;;;3.55;;
70757;SDS011;59316;52.964;7.102;2023-01-04T21:08:32;25.75;;;3.65;;
70757;SDS011;59316;52.964;7.102;2023-01-04T21:13:36;19.33;;;3.80;;
70757;SDS011;59316;52.964;7.102;2023-01-04T21:18:38;22.40;;;3.85;;
70757;SDS011;59316;52.964;7.102;2023-01-04T21:23:41;22.15;;;3.67;;
70757;SDS011;59316;52.964;7.102;2023-01-04T21:28:44;17.13;;;3.00;;
70757;SDS011;59316;52.964;7.102;2023-01-04T21:33:48;22.80;;;3.00;;
70757;SDS011;59316;52.964;7.102;2023-01-04T21:38:51;15.60;;;2.50;;
70757;SDS011;59316;52.964;7.102;2023-01-04T21:43:54;18.00;;;2.95;;
70757;SDS011;59316;52.964;7.102;2023-01-04T21:48:58;21.52;;;3.80;;
70757;SDS011;59316;52.964;7.102;2023-01-04T21:54:00;19.27;;;2.88;;
70757;SDS011;59316;52.964;7.102;2023-01-04T21:59:02;19.70;;;2.83;;
70757;SDS011;59316;52.964;7.102;2023-01-04T22:04:04;25.23;;;4.25;;
70757;SDS011;59316;52.964;7.102;2023-01-04T22:09:06;27.52;;;5.28;;
70757;SDS011;59316;52.964;7.102;2023-01-04T22:14:09;23.08;;;4.03;;
70757;SDS011;59316;52.964;7.102;2023-01-04T22:19:11;26.55;;;4.32;;
70757;SDS011;59316;52.964;7.102;2023-01-04T22:24:14;26.63;;;3.83;;
70757;SDS011;59316;52.964;7.102;2023-01-04T22:29:16;19.90;;;3.23;;
70757;SDS011;59316;52.964;7.102;2023-01-04T22:34:18;30.55;;;4.22;;
70757;SDS011;59316;52.964;7.102;2023-01-04T22:39:20;34.28;;;4.72;;
70757;SDS011;59316;52.964;7.102;2023-01-04T22:44:22;19.98;;;3.72;;
70757;SDS011;59316;52.964;7.102;2023-01-04T22:49:24;16.98;;;3.58;;
70757;SDS011;59316;52.964;7.102;2023-01-04T22:54:26;21.70;;;3.63;;
70757;SDS011;59316;52.964;7.102;2023-01-04T22:59:27;20.25;;;2.88;;
70757;SDS011;59316;52.964;7.102;2023-01-04T23:04:29;23.33;;;3.22;;
70757;SDS011;59316;52.964;7.102;2023-01-04T23:09:31;14.77;;;2.83;;
70757;SDS011;59316;52.964;7.102;2023-01-04T23:14:34;27.10;;;3.42;;
70757;SDS011;59316;52.964;7.102;2023-01-04T23:19:36;20.73;;;2.95;;
70757;SDS011;59316;52.964;7.102;2023-01-04T23:24:37;20.63;;;2.83;;
70757;SDS011;59316;52.964;7.102;2023-01-04T23:29:40;18.80;;;3.00;;
70757;SDS011;59316;52.964;7.102;2023-01-04T23:34:42;17.23;;;2.85;;
70757;SDS011;59316;52.964;7.102;2023-01-04T23:39:44;17.00;;;3.97;;
70757;SDS011;59316;52.964;7.102;2023-01-04T23:44:46;23.23;;;3.33;;
70757;SDS011;59316;52.964;7.102;2023-01-04T23:49:47;15.10;;;2.95;;
70757;SDS011;59316;52.964;7.102;2023-01-04T23:54:49;19.20;;;3.60;;
70757;SDS011;59316;52.964;7.102;2023-01-04T23:59:51;17.02;;;2.78;;
